Time;durP1;ratioP1;P1;durP2;ratioP2;P2;SDS_P1;SDS_P2;PMS_P1;PMS_P2;Temp;Humidity;BMP_temperature;BMP_pressure;BME280_temperature;BME280_humidity;BME280_pressure;Samples;Min_cycle;Max_cycle;Signal;HPM_P1;HPM_P2
2022/03/23 00:01:47;;;;;;;65.25;38.75;;;6.50;99.90;;;;;;5119867;28;20092;-82
2022/03/23 00:04:13;;;;;;;62.88;39.53;;;6.40;99.90;;;;;;5124604;28;20098;-81
2022/03/23 00:06:38;;;;;;;64.38;38.75;;;6.40;99.90;;;;;;5088064;28;20042;-81
2022/03/23 00:09:04;;;;;;;58.88;36.97;;;6.40;99.90;;;;;;5091738;28;20043;-81
2022/03/23 00:11:30;;;;;;;62.47;39.28;;;6.30;99.90;;;;;;5126838;28;20411;-82
2022/03/23 00:13:56;;;;;;;60.50;37.25;;;6.40;99.90;;;;;;5108300;28;20042;-82
2022/03/23 00:16:22;;;;;;;64.35;38.70;;;6.30;99.90;;;;;;5090638;28;20047;-82
2022/03/23 00:18:48;;;;;;;58.85;37.95;;;6.30;99.90;;;;;;5102611;28;20050;-81
2022/03/23 00:21:14;;;;;;;63.60;37.83;;;6.30;99.90;;;;;;5106298;27;20096;-82
2022/03/23 00:23:40;;;;;;;61.13;37.28;;;6.20;99.90;;;;;;5131915;27;20047;-81
2022/03/23 00:26:06;;;;;;;61.08;37.17;;;6.30;99.90;;;;;;5110703;27;20043;-81
2022/03/23 00:28:32;;;;;;;63.60;37.33;;;6.20;99.90;;;;;;5128718;27;20035;-82
2022/03/23 00:30:58;;;;;;;63.47;39.42;;;6.30;99.90;;;;;;5106983;27;20039;-80
2022/03/23 00:33:23;;;;;;;64.13;37.95;;;6.20;99.90;;;;;;5105633;27;20077;-81
2022/03/23 00:35:50;;;;;;;61.58;39.03;;;6.20;99.90;;;;;;5129727;27;20062;-81
2022/03/23 00:38:18;;;;;;;60.85;37.42;;;6.20;99.90;;;;;;5113506;27;20049;-81
2022/03/23 00:40:44;;;;;;;62.97;37.60;;;6.10;99.90;;;;;;5132851;27;20035;-82
2022/03/23 00:43:10;;;;;;;60.53;36.88;;;6.10;99.90;;;;;;5128267;27;20463;-81
2022/03/23 00:45:37;;;;;;;60.22;37.63;;;6.10;99.90;;;;;;5097002;27;20045;-81
2022/03/23 00:48:04;;;;;;;61.35;36.95;;;6.10;99.90;;;;;;5133095;27;20031;-81
2022/03/23 00:50:30;;;;;;;58.22;37.10;;;6.00;99.90;;;;;;5115172;27;20084;-81
2022/03/23 00:52:55;;;;;;;54.80;35.63;;;6.00;99.90;;;;;;5114452;27;20065;-81
2022/03/23 00:55:21;;;;;;;55.60;36.45;;;6.00;99.90;;;;;;5131571;27;20042;-81
2022/03/23 00:57:47;;;;;;;60.42;35.63;;;6.00;99.90;;;;;;5097066;27;20031;-81
2022/03/23 01:00:17;;;;;;;55.00;34.67;;;5.90;99.90;;;;;;5108900;27;20035;-82
2022/03/23 01:02:45;;;;;;;57.35;35.10;;;5.90;99.90;;;;;;5130407;27;20061;-82
2022/03/23 01:05:15;;;;;;;60.50;37.42;;;5.90;99.90;;;;;;5087089;27;20459;-81
2022/03/23 01:07:41;;;;;;;57.70;36.78;;;5.90;99.90;;;;;;5094218;27;20074;-81
2022/03/23 01:10:11;;;;;;;56.90;35.13;;;5.90;99.90;;;;;;5105953;27;20035;-81
2022/03/23 01:12:45;;;;;;;58.35;34.42;;;5.80;99.90;;;;;;5130061;27;20038;-81
2022/03/23 01:15:12;;;;;;;58.15;35.38;;;5.80;99.90;;;;;;5108877;27;20050;-82
2022/03/23 01:17:39;;;;;;;59.60;35.38;;;5.80;99.90;;;;;;5125993;27;21676;-81
2022/03/23 01:20:08;;;;;;;58.33;35.75;;;5.70;99.90;;;;;;5095100;27;20083;-81
2022/03/23 01:22:37;;;;;;;55.08;34.88;;;5.70;99.90;;;;;;5131030;27;20451;-81
2022/03/23 01:25:08;;;;;;;59.92;36.17;;;5.70;99.90;;;;;;5110157;27;20106;-81
2022/03/23 01:27:34;;;;;;;55.60;34.07;;;5.60;99.90;;;;;;5110361;27;20035;-81
2022/03/23 01:30:01;;;;;;;59.78;34.92;;;5.60;99.90;;;;;;5095668;27;20053;-81
2022/03/23 01:32:27;;;;;;;57.15;35.78;;;5.50;99.90;;;;;;5110394;27;20122;-81
2022/03/23 01:34:52;;;;;;;65.20;37.42;;;5.50;99.90;;;;;;5123505;27;20106;-82
2022/03/23 01:37:18;;;;;;;60.40;36.70;;;5.50;99.90;;;;;;5108495;27;20039;-81
2022/03/23 01:39:44;;;;;;;57.53;34.58;;;5.40;99.90;;;;;;5127749;27;20043;-81
2022/03/23 01:42:10;;;;;;;54.08;34.22;;;5.40;99.90;;;;;;5111232;27;20114;-81
2022/03/23 01:44:36;;;;;;;57.22;34.00;;;5.00;99.90;;;;;;5129664;27;20035;-81
2022/03/23 01:47:13;;;;;;;53.70;33.97;;;5.40;99.90;;;;;;5129479;27;20039;-82
2022/03/23 01:49:52;;;;;;;55.90;32.75;;;5.40;99.90;;;;;;5111457;27;20084;-82
2022/03/23 01:52:19;;;;;;;52.60;33.05;;;5.40;99.90;;;;;;5107722;27;20074;-82
2022/03/23 01:54:46;;;;;;;55.10;32.88;;;5.40;99.90;;;;;;5111124;27;20118;-82
2022/03/23 01:57:14;;;;;;;54.10;34.13;;;5.30;99.90;;;;;;5094648;27;20054;-81
2022/03/23 01:59:40;;;;;;;50.72;32.80;;;5.30;99.90;;;;;;5120625;27;20491;-82
2022/03/23 02:02:08;;;;;;;59.35;34.08;;;5.30;99.90;;;;;;5105825;27;20085;-81
2022/03/23 02:04:34;;;;;;;57.72;34.92;;;5.20;99.90;;;;;;5094215;27;20043;-81
2022/03/23 02:07:00;;;;;;;53.65;33.35;;;5.20;99.90;;;;;;5087072;28;20047;-82
2022/03/23 02:09:27;;;;;;;55.67;35.00;;;5.10;99.90;;;;;;5097592;27;20492;-81
2022/03/23 02:11:53;;;;;;;58.00;34.92;;;5.00;99.90;;;;;;5129178;27;20088;-81
2022/03/23 02:14:20;;;;;;;54.40;33.28;;;5.00;99.90;;;;;;5091723;27;20407;-81
2022/03/23 02:16:48;;;;;;;54.22;33.92;;;5.00;99.90;;;;;;5109368;27;20047;-81
2022/03/23 02:19:15;;;;;;;57.10;34.35;;;5.00;99.90;;;;;;5084253;27;20389;-81
2022/03/23 02:21:48;;;;;;;52.75;31.83;;;5.00;99.90;;;;;;5110290;27;20701;-81
2022/03/23 02:24:16;;;;;;;55.28;33.90;;;4.90;99.90;;;;;;5109138;27;20368;-81
2022/03/23 02:26:42;;;;;;;55.72;34.22;;;4.90;99.90;;;;;;5116476;27;20050;-81
2022/03/23 02:29:09;;;;;;;56.50;33.72;;;4.90;99.90;;;;;;5104647;27;20054;-81
2022/03/23 02:31:35;;;;;;;57.55;33.60;;;4.90;99.90;;;;;;5118264;27;20107;-81
2022/03/23 02:34:02;;;;;;;58.40;34.92;;;4.90;99.90;;;;;;5121643;27;20077;-81
2022/03/23 02:36:29;;;;;;;54.15;32.28;;;4.90;99.90;;;;;;5089130;27;20039;-81
2022/03/23 02:38:54;;;;;;;54.53;33.03;;;4.80;99.90;;;;;;5120530;27;20036;-81
2022/03/23 02:41:20;;;;;;;51.65;32.78;;;4.90;99.90;;;;;;5103928;27;20475;-81
2022/03/23 02:43:46;;;;;;;51.95;32.25;;;4.80;99.90;;;;;;5124127;27;20104;-81
2022/03/23 02:46:19;;;;;;;57.67;33.35;;;4.80;99.90;;;;;;5089070;28;20035;-81
2022/03/23 02:48:46;;;;;;;52.03;32.63;;;4.80;99.90;;;;;;5105180;27;20039;-82
2022/03/23 02:51:12;;;;;;;56.70;34.00;;;4.80;99.90;;;;;;5109217;27;20047;-81
2022/03/23 03:02:39;;;;;;;57.67;33.00;;;4.60;99.90;;;;;;5123384;27;20044;-81
2022/03/23 03:05:08;;;;;;;57.42;33.78;;;4.60;99.90;;;;;;5089504;27;20609;-81
2022/03/23 03:10:19;;;;;;;54.28;31.75;;;4.70;99.90;;;;;;5110843;27;20054;-81
2022/03/23 03:12:46;;;;;;;52.90;33.22;;;4.50;99.90;;;;;;5128407;27;20651;-81
2022/03/23 03:15:13;;;;;;;53.13;33.63;;;4.50;99.90;;;;;;5129615;27;20039;-80
2022/03/23 03:17:39;;;;;;;55.20;34.28;;;4.40;99.90;;;;;;5107776;28;20051;-81
2022/03/23 03:20:06;;;;;;;56.08;33.10;;;4.40;99.90;;;;;;5074139;28;20436;-80
2022/03/23 03:22:38;;;;;;;55.15;33.25;;;4.40;99.90;;;;;;5083328;28;20091;-81
2022/03/23 03:25:05;;;;;;;59.67;34.00;;;4.40;99.90;;;;;;5146693;28;20023;-80
2022/03/23 03:27:32;;;;;;;60.35;35.58;;;4.40;99.90;;;;;;5154304;27;20035;-81
2022/03/23 03:29:58;;;;;;;54.38;33.03;;;4.40;99.90;;;;;;5136342;27;20035;-81
2022/03/23 03:32:24;;;;;;;57.28;32.72;;;4.30;99.90;;;;;;5119133;28;20049;-81
2022/03/23 03:34:49;;;;;;;57.50;35.63;;;4.30;99.90;;;;;;5084392;28;20046;-81
2022/03/23 03:37:15;;;;;;;53.67;33.60;;;4.30;99.90;;;;;;5127336;28;20035;-81
2022/03/23 03:39:41;;;;;;;56.70;33.60;;;4.20;99.90;;;;;;5092977;28;20100;-81
2022/03/23 03:42:07;;;;;;;56.03;33.47;;;4.20;99.90;;;;;;5128412;28;20036;-81
2022/03/23 03:44:32;;;;;;;55.28;34.40;;;4.20;99.90;;;;;;5109888;28;20047;-81
2022/03/23 03:46:58;;;;;;;55.97;34.40;;;4.20;99.90;;;;;;5104588;28;20039;-81
2022/03/23 03:49:24;;;;;;;59.78;35.13;;;4.20;99.90;;;;;;5086558;28;20048;-81
2022/03/23 03:51:49;;;;;;;59.03;35.70;;;4.20;99.90;;;;;;5105322;28;20037;-81
2022/03/23 03:54:16;;;;;;;57.55;33.97;;;4.20;99.90;;;;;;5099184;28;20086;-81
2022/03/23 03:56:41;;;;;;;59.05;34.95;;;4.20;99.90;;;;;;5093253;27;20039;-82
2022/03/23 03:59:07;;;;;;;58.10;34.53;;;4.20;99.90;;;;;;5085127;27;20043;-81
2022/03/23 04:01:33;;;;;;;54.08;32.45;;;4.10;99.90;;;;;;5129234;27;20035;-81
2022/03/23 04:03:58;;;;;;;55.53;33.53;;;4.10;99.90;;;;;;5126420;27;20031;-81
2022/03/23 04:06:24;;;;;;;58.42;34.30;;;4.10;99.90;;;;;;5122884;27;20037;-81
2022/03/23 04:08:50;;;;;;;60.13;34.05;;;4.10;99.90;;;;;;5090266;27;20607;-81
2022/03/23 04:11:16;;;;;;;59.40;35.72;;;4.10;99.90;;;;;;5089807;27;20552;-81
2022/03/23 04:13:42;;;;;;;55.63;32.22;;;4.00;99.90;;;;;;5104913;27;20035;-81
2022/03/23 04:16:08;;;;;;;54.20;33.20;;;4.00;99.90;;;;;;5106359;27;20076;-81
2022/03/23 04:18:33;;;;;;;56.47;32.53;;;4.00;99.90;;;;;;5102192;27;20035;-82
2022/03/23 04:21:00;;;;;;;54.38;32.67;;;4.00;99.90;;;;;;5108324;27;20051;-81
2022/03/23 04:23:25;;;;;;;52.95;33.05;;;4.00;99.90;;;;;;5104577;27;20080;-81
2022/03/23 04:25:51;;;;;;;55.55;33.67;;;3.90;99.90;;;;;;5114852;27;20035;-81
2022/03/23 04:28:17;;;;;;;58.10;33.22;;;3.90;99.90;;;;;;5105618;27;20047;-81
2022/03/23 04:30:43;;;;;;;58.92;34.20;;;4.00;99.90;;;;;;5120000;27;20787;-81
2022/03/23 04:33:09;;;;;;;52.50;31.55;;;3.90;99.90;;;;;;5107243;27;20122;-81
2022/03/23 04:35:34;;;;;;;55.30;33.17;;;3.90;99.90;;;;;;5087041;27;20102;-81
2022/03/23 04:38:00;;;;;;;58.25;32.00;;;3.80;99.90;;;;;;5089683;27;20052;-81
2022/03/23 04:40:26;;;;;;;53.85;32.13;;;3.80;99.90;;;;;;5116561;27;20457;-81
2022/03/23 04:42:51;;;;;;;59.05;34.22;;;3.80;99.90;;;;;;5103544;27;20042;-81
2022/03/23 04:45:18;;;;;;;52.50;32.38;;;3.80;99.90;;;;;;5115709;27;20101;-81
2022/03/23 04:47:44;;;;;;;52.45;30.23;;;3.80;99.90;;;;;;5124224;27;20046;-81
2022/03/23 04:50:12;;;;;;;53.95;32.95;;;3.70;99.90;;;;;;5103323;27;20765;-81
2022/03/23 04:52:40;;;;;;;56.83;32.10;;;3.70;99.90;;;;;;5101657;27;20059;-81
2022/03/23 04:55:07;;;;;;;54.53;33.03;;;3.70;99.90;;;;;;5086660;27;20282;-81
2022/03/23 04:57:33;;;;;;;55.08;33.47;;;3.70;99.90;;;;;;5120749;27;20058;-81
2022/03/23 04:59:59;;;;;;;55.88;33.13;;;3.60;99.90;;;;;;5109422;27;20046;-81
2022/03/23 05:02:26;;;;;;;55.25;32.33;;;3.60;99.90;;;;;;5101361;27;20175;-81
2022/03/23 05:04:51;;;;;;;50.90;30.38;;;3.60;99.90;;;;;;5090311;27;20048;-81
2022/03/23 05:07:17;;;;;;;55.67;32.25;;;3.60;99.90;;;;;;5085452;28;20107;-81
2022/03/23 05:09:43;;;;;;;52.65;31.98;;;3.60;99.90;;;;;;5100488;27;20132;-81
2022/03/23 05:12:09;;;;;;;53.63;32.42;;;3.60;99.90;;;;;;5119384;27;20042;-81
2022/03/23 05:14:36;;;;;;;54.17;32.38;;;3.50;99.90;;;;;;5117566;27;20039;-81
2022/03/23 05:17:02;;;;;;;55.28;32.17;;;3.50;99.90;;;;;;5102202;27;20100;-82
2022/03/23 05:19:28;;;;;;;53.83;31.52;;;3.50;99.90;;;;;;5090003;27;20085;-81
2022/03/23 05:21:54;;;;;;;53.05;31.02;;;3.50;99.90;;;;;;5088150;27;20093;-81
2022/03/23 05:24:19;;;;;;;56.13;33.45;;;3.50;99.90;;;;;;5090944;27;20464;-81
2022/03/23 05:26:48;;;;;;;52.70;30.85;;;3.50;99.90;;;;;;5111408;27;20130;-81
2022/03/23 05:29:14;;;;;;;58.25;31.52;;;3.40;99.90;;;;;;5083166;27;20422;-81
2022/03/23 05:31:40;;;;;;;51.90;30.95;;;3.40;99.90;;;;;;5106706;27;20031;-81
2022/03/23 05:34:05;;;;;;;54.70;32.05;;;3.40;99.90;;;;;;5103452;27;20283;-81
2022/03/23 05:36:31;;;;;;;55.08;32.33;;;3.40;99.90;;;;;;5125357;27;20220;-81
2022/03/23 05:38:57;;;;;;;51.97;30.95;;;3.40;99.90;;;;;;5121180;27;20499;-81
2022/03/23 05:41:24;;;;;;;51.15;30.15;;;3.40;99.90;;;;;;5100494;27;20065;-81
2022/03/23 05:43:49;;;;;;;54.17;31.60;;;3.40;99.90;;;;;;5106406;27;20118;-81
2022/03/23 05:46:16;;;;;;;52.10;30.52;;;3.40;99.90;;;;;;5102805;27;20507;-81
2022/03/23 05:48:43;;;;;;;57.47;31.75;;;3.40;99.90;;;;;;5107197;27;20039;-81
2022/03/23 05:51:08;;;;;;;52.72;31.20;;;3.40;99.90;;;;;;5098276;27;20541;-81
2022/03/23 05:53:36;;;;;;;54.22;31.85;;;3.50;99.90;;;;;;5108872;27;20042;-81
2022/03/23 05:56:04;;;;;;;52.53;31.20;;;3.50;99.90;;;;;;5119029;27;20137;-81
2022/03/23 05:58:29;;;;;;;54.88;31.92;;;3.60;99.90;;;;;;5089447;27;20043;-81
2022/03/23 06:00:55;;;;;;;50.78;30.95;;;3.60;99.90;;;;;;5086596;27;20045;-80
2022/03/23 06:03:21;;;;;;;53.72;31.35;;;3.60;99.90;;;;;;5099502;27;20511;-81
2022/03/23 06:05:46;;;;;;;52.47;31.75;;;3.70;99.90;;;;;;5088298;27;20046;-81
2022/03/23 06:08:12;;;;;;;53.42;32.88;;;4.00;99.90;;;;;;5103912;27;20035;-81
2022/03/23 06:10:38;;;;;;;49.55;31.48;;;4.50;99.90;;;;;;5125996;27;20042;-80
2022/03/23 06:13:04;;;;;;;48.78;30.30;;;4.90;99.90;;;;;;5099436;27;20050;-81
2022/03/23 06:15:30;;;;;;;53.08;31.98;;;5.30;99.90;;;;;;5114264;27;20063;-80
2022/03/23 06:17:55;;;;;;;49.67;30.05;;;6.20;99.90;;;;;;5095339;27;20035;-81
2022/03/23 06:20:21;;;;;;;49.60;29.88;;;6.10;99.90;;;;;;5115549;27;20052;-80
2022/03/23 06:22:47;;;;;;;49.63;28.20;;;6.50;99.90;;;;;;5076300;27;20054;-81
2022/03/23 06:25:12;;;;;;;51.72;29.58;;;6.60;99.90;;;;;;5092917;27;20035;-80
2022/03/23 06:27:38;;;;;;;57.38;29.50;;;6.70;99.90;;;;;;5081790;27;20490;-80
2022/03/23 06:30:05;;;;;;;51.85;30.98;;;7.10;99.90;;;;;;5089510;27;20038;-81
2022/03/23 06:32:33;;;;;;;54.97;31.40;;;7.50;99.90;;;;;;5066058;27;20394;-80
2022/03/23 06:35:00;;;;;;;52.35;31.10;;;7.90;99.90;;;;;;5095706;27;20069;-82
2022/03/23 06:37:26;;;;;;;48.70;28.92;;;8.10;99.90;;;;;;5083147;27;20106;-82
2022/03/23 06:39:52;;;;;;;45.58;28.38;;;8.60;99.90;;;;;;5085968;27;20034;-81
2022/03/23 06:42:18;;;;;;;45.70;28.25;;;8.80;99.90;;;;;;5106617;27;20479;-81
2022/03/23 06:44:43;;;;;;;45.85;28.27;;;10.00;99.90;;;;;;5081313;27;20110;-82
2022/03/23 06:47:09;;;;;;;46.40;29.42;;;9.50;99.90;;;;;;5108962;27;20215;-82
2022/03/23 06:49:35;;;;;;;46.72;28.25;;;10.20;99.90;;;;;;5089030;27;20126;-82
2022/03/23 06:52:01;;;;;;;47.88;29.73;;;10.50;99.90;;;;;;5092272;28;20044;-82
2022/03/23 06:54:26;;;;;;;44.45;28.20;;;10.80;99.90;;;;;;5098293;27;20050;-82
2022/03/23 06:56:52;;;;;;;46.47;28.85;;;11.70;99.90;;;;;;5116105;27;20093;-81
2022/03/23 06:59:21;;;;;;;45.85;29.52;;;11.60;99.90;;;;;;5114361;27;20057;-81
2022/03/23 07:01:47;;;;;;;48.22;29.45;;;11.30;99.90;;;;;;5089644;27;20109;-81
2022/03/23 07:04:13;;;;;;;51.45;31.42;;;11.00;99.90;;;;;;5109301;27;20070;-82
2022/03/23 07:06:39;;;;;;;51.40;31.33;;;10.70;99.90;;;;;;5114603;27;20043;-81
2022/03/23 07:11:49;;;;;;;53.97;33.10;;;11.60;99.90;;;;;;5115986;27;20051;-82
2022/03/23 07:14:17;;;;;;;56.25;34.53;;;12.70;99.90;;;;;;5095211;27;20062;-81
2022/03/23 07:16:43;;;;;;;57.42;35.30;;;13.80;99.90;;;;;;5102984;28;20084;-81
2022/03/23 07:19:10;;;;;;;57.78;34.70;;;14.10;99.90;;;;;;5102241;28;20432;-81
2022/03/23 07:21:36;;;;;;;58.08;34.10;;;14.80;99.90;;;;;;5093103;28;20270;-81
2022/03/23 07:24:01;;;;;;;54.28;33.30;;;15.40;99.90;;;;;;5117866;28;20055;-81
2022/03/23 07:26:27;;;;;;;53.33;33.42;;;16.00;99.90;;;;;;5100397;28;20036;-80
2022/03/23 07:28:53;;;;;;;60.35;35.28;;;16.40;99.90;;;;;;5094704;28;20388;-80
2022/03/23 07:31:19;;;;;;;52.67;34.58;;;16.70;99.90;;;;;;5113903;27;20093;-81
2022/03/23 07:33:44;;;;;;;54.97;34.33;;;17.00;99.90;;;;;;5108871;27;20484;-81
2022/03/23 07:36:13;;;;;;;54.63;35.45;;;17.30;99.90;;;;;;5089330;27;20189;-81
2022/03/23 07:38:40;;;;;;;56.13;36.03;;;17.60;99.90;;;;;;5077565;27;20039;-81
2022/03/23 07:41:06;;;;;;;55.00;36.28;;;17.10;99.90;;;;;;5093711;27;20145;-81
2022/03/23 07:43:31;;;;;;;56.85;35.05;;;16.30;99.90;;;;;;5107519;27;20106;-81
2022/03/23 07:45:57;;;;;;;52.35;34.08;;;15.60;99.90;;;;;;5096599;27;20582;-81
2022/03/23 07:48:23;;;;;;;54.22;34.70;;;14.60;99.90;;;;;;5094312;27;20062;-82
2022/03/23 07:50:51;;;;;;;56.33;34.17;;;14.40;99.90;;;;;;5094534;27;20602;-82
2022/03/23 07:53:17;;;;;;;50.65;32.88;;;13.80;99.90;;;;;;5113255;27;20522;-82
2022/03/23 07:55:42;;;;;;;50.03;32.95;;;13.60;99.90;;;;;;5111320;27;20039;-82
2022/03/23 07:58:09;;;;;;;53.33;32.78;;;13.40;99.90;;;;;;5093228;27;20073;-81
2022/03/23 08:00:35;;;;;;;51.60;34.40;;;13.30;99.90;;;;;;5093861;27;20094;-81
2022/03/23 08:03:00;;;;;;;48.30;31.92;;;13.10;99.90;;;;;;5061065;27;20040;-82
2022/03/23 08:05:27;;;;;;;48.72;31.83;;;13.10;99.90;;;;;;5111837;27;20140;-82
2022/03/23 08:07:53;;;;;;;49.97;32.80;;;13.10;99.90;;;;;;5088436;27;20044;-80
2022/03/23 08:10:19;;;;;;;55.30;32.08;;;13.10;99.90;;;;;;5096764;27;20031;-81
2022/03/23 08:12:44;;;;;;;51.67;32.97;;;13.00;99.90;;;;;;5098572;27;20560;-81
2022/03/23 08:15:13;;;;;;;46.97;31.27;;;13.00;99.90;;;;;;5097999;27;20065;-82
2022/03/23 08:17:39;;;;;;;49.35;32.47;;;13.00;99.90;;;;;;5116529;27;20465;-81
2022/03/23 08:23:12;;;;;;;47.50;32.15;;;13.20;99.90;;;;;;5093054;27;20051;-81
2022/03/23 08:25:42;;;;;;;48.25;30.30;;;13.40;99.90;;;;;;5096133;27;20922;-83
2022/03/23 08:28:11;;;;;;;47.00;30.90;;;13.60;99.90;;;;;;5094664;27;20071;-81
2022/03/23 08:30:38;;;;;;;48.85;31.92;;;13.80;99.90;;;;;;5093370;27;20060;-84
2022/03/23 08:33:04;;;;;;;45.72;31.25;;;14.20;99.90;;;;;;5113997;27;20048;-81
2022/03/23 08:35:31;;;;;;;43.85;30.70;;;14.20;99.90;;;;;;5099250;27;21454;-80
2022/03/23 08:37:57;;;;;;;44.03;30.58;;;14.40;99.90;;;;;;5081383;27;20048;-81
2022/03/23 08:40:22;;;;;;;43.28;30.27;;;14.30;99.90;;;;;;5118096;27;20058;-81
2022/03/23 08:42:48;;;;;;;45.85;31.30;;;14.40;99.90;;;;;;5099220;27;20046;-82
2022/03/23 08:45:17;;;;;;;47.13;30.60;;;14.50;99.90;;;;;;5098643;27;20480;-83
2022/03/23 08:47:43;;;;;;;43.03;28.80;;;14.50;99.90;;;;;;5104950;27;20039;-82
2022/03/23 08:50:12;;;;;;;40.33;27.52;;;14.60;99.90;;;;;;5119148;27;20054;-83
2022/03/23 08:52:41;;;;;;;43.45;29.27;;;14.80;99.90;;;;;;5101592;27;20035;-82
2022/03/23 08:55:09;;;;;;;42.80;29.25;;;14.90;99.90;;;;;;5084897;27;20040;-82
2022/03/23 08:57:36;;;;;;;49.85;30.27;;;15.10;99.90;;;;;;5096573;27;20101;-82
2022/03/23 09:00:04;;;;;;;44.53;28.38;;;15.20;99.90;;;;;;5094365;27;20193;-82
2022/03/23 09:02:30;;;;;;;43.08;29.33;;;15.20;99.90;;;;;;5090448;27;20047;-82
2022/03/23 09:04:56;;;;;;;46.25;29.77;;;15.30;99.90;;;;;;5094769;27;20049;-83
2022/03/23 09:07:21;;;;;;;44.85;29.85;;;15.40;99.90;;;;;;5111076;27;20043;-81
2022/03/23 09:09:47;;;;;;;48.58;30.02;;;15.50;99.90;;;;;;5074804;27;20039;-82
2022/03/23 09:12:13;;;;;;;47.35;28.88;;;15.50;99.90;;;;;;5079375;27;20079;-82
2022/03/23 09:14:39;;;;;;;48.55;29.52;;;15.60;99.90;;;;;;5096494;27;20559;-81
2022/03/23 09:17:06;;;;;;;42.38;27.20;;;15.60;99.90;;;;;;5090862;27;20044;-81
2022/03/23 09:19:33;;;;;;;42.78;28.13;;;15.60;99.90;;;;;;5094002;27;20081;-82
2022/03/23 09:21:59;;;;;;;42.08;27.48;;;15.70;99.90;;;;;;5112850;27;20059;-82
2022/03/23 09:24:26;;;;;;;40.88;28.98;;;15.80;99.90;;;;;;5101603;27;20100;-82
2022/03/23 09:26:53;;;;;;;42.78;28.30;;;15.90;99.90;;;;;;5080590;27;20045;-81
2022/03/23 09:29:19;;;;;;;43.53;29.25;;;16.00;99.90;;;;;;5100795;27;20070;-82
2022/03/23 09:31:45;;;;;;;41.70;28.80;;;16.30;99.90;;;;;;5077828;27;20039;-81
2022/03/23 09:34:10;;;;;;;39.47;26.77;;;16.40;99.90;;;;;;5083176;27;20100;-82
2022/03/23 09:39:20;;;;;;;40.95;25.23;;;16.60;99.60;;;;;;5097527;27;20056;-82
2022/03/23 09:41:47;;;;;;;36.35;24.08;;;16.60;99.10;;;;;;5097757;27;20054;-82
2022/03/23 09:44:13;;;;;;;36.63;24.52;;;16.60;96.30;;;;;;5100880;27;20035;-82
2022/03/23 09:46:39;;;;;;;37.70;23.30;;;16.80;96.00;;;;;;5081986;27;20046;-82
2022/03/23 09:49:09;;;;;;;35.45;23.25;;;16.70;94.10;;;;;;5079434;27;20035;-82
2022/03/23 09:51:37;;;;;;;32.85;22.70;;;16.80;94.20;;;;;;5095386;27;20043;-82
2022/03/23 09:54:04;;;;;;;33.63;22.95;;;16.80;92.20;;;;;;5102302;27;20058;-82
2022/03/23 09:56:30;;;;;;;35.83;23.15;;;16.80;90.80;;;;;;5103371;27;20035;-82
2022/03/23 09:58:56;;;;;;;32.45;22.83;;;16.70;87.50;;;;;;5103452;27;20040;-82
2022/03/23 10:01:31;;;;;;;32.50;22.23;;;16.80;91.10;;;;;;5083135;27;20035;-81
2022/03/23 10:04:12;;;;;;;30.73;22.80;;;17.00;91.00;;;;;;5102996;27;20039;-82
2022/03/23 10:07:15;;;;;;;31.63;21.55;;;17.00;88.50;;;;;;5118575;27;20036;-82
2022/03/23 10:10:19;;;;;;;28.83;20.77;;;17.00;84.60;;;;;;5090264;27;20142;-82
2022/03/23 10:13:22;;;;;;;33.58;20.05;;;17.10;82.20;;;;;;5087342;27;20123;-82
2022/03/23 10:16:30;;;;;;;31.00;20.92;;;17.10;81.90;;;;;;5088727;27;20046;-86
2022/03/23 10:18:57;;;;;;;29.65;20.35;;;17.00;79.00;;;;;;5075777;27;20047;-82
2022/03/23 10:21:25;;;;;;;29.38;20.23;;;17.10;82.00;;;;;;5101224;27;20051;-82
2022/03/23 10:24:00;;;;;;;32.38;20.25;;;17.00;81.30;;;;;;5103267;27;20043;-81
2022/03/23 10:26:32;;;;;;;29.00;20.52;;;17.10;80.10;;;;;;5119592;27;20130;-82
2022/03/23 10:28:59;;;;;;;29.15;19.98;;;17.20;80.50;;;;;;5086979;27;20043;-82
2022/03/23 10:31:26;;;;;;;30.60;19.88;;;17.10;79.20;;;;;;5101999;27;20630;-83
2022/03/23 10:34:10;;;;;;;30.40;21.05;;;17.30;78.00;;;;;;5101334;27;20043;-82
2022/03/23 10:36:39;;;;;;;31.45;19.42;;;17.20;79.10;;;;;;5086494;27;20441;-82
2022/03/23 10:39:07;;;;;;;29.45;20.15;;;17.20;76.20;;;;;;5101652;27;20051;-82
2022/03/23 10:41:33;;;;;;;27.98;18.75;;;17.20;76.80;;;;;;5101108;27;20039;-82
2022/03/23 10:43:59;;;;;;;31.08;19.17;;;17.20;77.20;;;;;;5085610;27;20140;-82
2022/03/23 10:46:25;;;;;;;24.70;16.55;;;17.30;75.80;;;;;;5116010;27;20066;-82
2022/03/23 10:49:01;;;;;;;24.77;16.70;;;17.30;75.80;;;;;;5120307;27;20039;-82
2022/03/23 10:51:36;;;;;;;27.05;16.30;;;17.30;72.60;;;;;;5088316;27;20778;-86
2022/03/23 10:54:19;;;;;;;26.75;16.80;;;17.30;72.40;;;;;;5106107;27;20050;-82
2022/03/23 10:56:45;;;;;;;21.75;15.30;;;17.30;71.50;;;;;;5103612;27;20126;-82
2022/03/23 10:59:22;;;;;;;22.58;15.35;;;17.30;68.40;;;;;;5081149;27;20050;-83
2022/03/23 11:02:03;;;;;;;22.92;14.82;;;17.40;68.90;;;;;;5079360;27;20031;-82
2022/03/23 11:04:46;;;;;;;21.92;12.60;;;17.40;68.40;;;;;;5071786;27;20036;-84
2022/03/23 11:07:26;;;;;;;20.05;12.38;;;17.50;68.10;;;;;;5087091;27;20829;-82
2022/03/23 11:18:11;;;;;;;24.15;13.45;;;17.90;67.40;;;;;;5111258;27;20047;-85
2022/03/23 11:20:47;;;;;;;34.63;15.50;;;17.90;66.60;;;;;;5081449;28;20327;-83
2022/03/23 11:23:18;;;;;;;22.75;13.27;;;18.00;65.90;;;;;;5112433;28;20043;-83
2022/03/23 11:25:45;;;;;;;26.37;13.10;;;18.10;67.70;;;;;;5072173;28;20035;-83
2022/03/23 11:28:14;;;;;;;25.80;12.20;;;18.10;68.00;;;;;;5072454;28;20388;-83
2022/03/23 11:30:44;;;;;;;23.60;12.60;;;18.20;64.80;;;;;;5076690;28;20362;-83
2022/03/23 11:33:12;;;;;;;26.60;13.10;;;18.30;66.90;;;;;;5089074;28;20039;-83
2022/03/23 11:35:46;;;;;;;28.67;15.25;;;18.30;64.80;;;;;;5088927;28;20062;-84
2022/03/23 11:38:12;;;;;;;24.25;14.27;;;18.40;63.80;;;;;;5092802;28;20040;-82
2022/03/23 11:40:40;;;;;;;22.85;14.05;;;18.50;64.90;;;;;;5105745;28;20035;-82
2022/03/23 11:43:06;;;;;;;20.17;13.15;;;18.50;66.30;;;;;;5089180;28;20116;-82
2022/03/23 11:45:32;;;;;;;31.52;12.95;;;18.60;63.00;;;;;;5088593;28;20046;-81
2022/03/23 11:48:07;;;;;;;22.05;11.88;;;18.70;61.20;;;;;;5086971;28;20442;-83
2022/03/23 11:50:39;;;;;;;25.33;10.50;;;18.70;64.90;;;;;;5092351;28;20078;-82
2022/03/23 11:53:29;;;;;;;22.05;10.25;;;18.70;62.70;;;;;;5091700;28;20369;-81
2022/03/23 11:55:56;;;;;;;18.63;10.52;;;18.70;64.10;;;;;;5088255;28;20184;-82
2022/03/23 11:58:37;;;;;;;21.23;10.52;;;18.80;63.80;;;;;;5068614;28;20558;-81
2022/03/23 12:01:08;;;;;;;21.05;11.35;;;18.80;63.50;;;;;;5087931;28;20043;-81
2022/03/23 12:04:01;;;;;;;21.13;11.18;;;18.90;61.00;;;;;;5092258;28;20653;-81
2022/03/23 12:06:41;;;;;;;25.90;11.48;;;19.00;60.40;;;;;;5094250;28;20126;-81
2022/03/23 12:09:08;;;;;;;20.10;9.63;;;19.00;61.20;;;;;;5105489;28;20079;-82
2022/03/23 12:11:46;;;;;;;24.25;10.65;;;19.00;62.60;;;;;;5089782;28;20078;-81
2022/03/23 12:14:24;;;;;;;26.35;9.93;;;19.00;61.80;;;;;;5105768;28;20050;-81
2022/03/23 12:16:49;;;;;;;18.33;7.28;;;19.10;59.60;;;;;;5088504;27;20043;-82
2022/03/23 12:19:55;;;;;;;22.02;7.65;;;19.10;60.30;;;;;;5092654;27;20054;-81
2022/03/23 12:22:54;;;;;;;21.58;8.48;;;19.10;61.10;;;;;;5041272;27;20061;-82
2022/03/23 12:25:29;;;;;;;24.42;8.68;;;19.10;60.40;;;;;;5074837;27;20131;-81
2022/03/23 12:28:04;;;;;;;18.90;7.90;;;19.10;60.60;;;;;;5095361;27;20801;-81
2022/03/23 12:30:30;;;;;;;23.70;8.07;;;19.00;60.70;;;;;;5078189;27;20046;-83
2022/03/23 12:32:57;;;;;;;29.55;7.63;;;19.00;60.80;;;;;;5075566;27;20043;-82
2022/03/23 12:35:30;;;;;;;24.75;8.73;;;19.00;61.20;;;;;;5090446;27;20052;-81
2022/03/23 12:38:01;;;;;;;21.30;7.65;;;19.00;60.90;;;;;;5089283;27;20078;-81
2022/03/23 12:40:38;;;;;;;23.17;9.07;;;19.20;62.10;;;;;;5077964;27;20035;-81
2022/03/23 12:43:05;;;;;;;17.90;8.48;;;19.20;61.60;;;;;;5093037;27;20043;-83
2022/03/23 12:45:39;;;;;;;16.52;8.23;;;19.20;61.20;;;;;;5098447;27;20796;-82
2022/03/23 12:57:49;;;;;;;21.63;9.43;;;19.10;60.40;;;;;;5107463;27;20043;-81
2022/03/23 12:59:19;;;;;;;20.27;8.93;;;19.10;60.20;;;;;;5108204;27;20055;-81
2022/03/23 13:01:46;;;;;;;19.33;9.43;;;19.10;60.50;;;;;;5112132;27;20043;-82
2022/03/23 13:04:35;;;;;;;29.05;9.63;;;19.10;59.50;;;;;;5130394;27;20039;-82
2022/03/23 13:07:40;;;;;;;22.08;9.20;;;19.00;57.80;;;;;;5112612;27;20181;-82
2022/03/23 13:10:13;;;;;;;23.23;9.85;;;19.00;61.00;;;;;;5087408;27;20043;-82
2022/03/23 13:12:39;;;;;;;21.25;10.20;;;19.10;59.60;;;;;;5113022;27;20082;-82
2022/03/23 13:15:14;;;;;;;25.40;9.85;;;19.00;60.50;;;;;;5110572;27;20556;-82
2022/03/23 13:17:42;;;;;;;23.77;10.13;;;19.00;60.40;;;;;;5079164;27;20039;-81